Time;durP1;ratioP1;P1;durP2;ratioP2;P2;SDS_P1;SDS_P2;PMS_P1;PMS_P2;Temp;Humidity;BMP_temperature;BMP_pressure;BME280_temperature;BME280_humidity;BME280_pressure;Samples;Min_cycle;Max_cycle;Signal;HPM_P1;HPM_P2
2023/03/12 00:01:53;;;;;;;11.07;4.90;;;;;;;1.98;72.62;101103.91;5114604;27;20032;-62
2023/03/12 00:04:19;;;;;;;7.18;4.68;;;;;;;1.98;72.67;101105.63;5114607;27;20080;-62
2023/03/12 00:06:44;;;;;;;9.30;5.25;;;;;;;1.97;73.26;101101.34;5113105;27;20477;-62
2023/03/12 00:09:09;;;;;;;10.02;5.00;;;;;;;1.95;72.57;101101.38;5114596;27;20032;-61
2023/03/12 00:11:34;;;;;;;8.30;4.25;;;;;;;1.95;72.69;101092.66;5114143;27;20012;-61
2023/03/12 00:14:00;;;;;;;11.50;4.80;;;;;;;1.94;72.56;101093.59;5114552;27;20020;-58
2023/03/12 00:16:26;;;;;;;8.98;4.80;;;;;;;1.93;72.98;101091.84;5114502;27;20069;-61
2023/03/12 00:18:52;;;;;;;12.48;4.43;;;;;;;1.93;72.90;101095.34;5114327;27;20032;-62
2023/03/12 00:21:20;;;;;;;13.88;4.57;;;;;;;1.93;73.04;101082.25;5104183;27;20057;-61
2023/03/12 00:23:46;;;;;;;10.82;4.72;;;;;;;1.94;72.96;101077.88;5113332;28;20023;-62
2023/03/12 00:26:13;;;;;;;10.95;4.40;;;;;;;1.96;71.95;101079.50;5113474;27;20051;-62
2023/03/12 00:28:39;;;;;;;12.18;4.18;;;;;;;1.98;71.86;101059.38;5113533;27;20039;-62
2023/03/12 00:31:19;;;;;;;6.88;4.18;;;;;;;2.00;72.07;101062.78;5113697;27;20104;-61
2023/03/12 00:33:45;;;;;;;7.13;4.25;;;;;;;1.99;72.09;101055.81;5100185;27;20397;-62
2023/03/12 00:36:10;;;;;;;5.70;4.07;;;;;;;2.01;72.23;101056.59;5113700;27;20027;-62
2023/03/12 00:38:35;;;;;;;7.90;4.32;;;;;;;2.03;71.50;101053.94;5102404;27;20109;-62
2023/03/12 00:41:01;;;;;;;7.72;4.03;;;;;;;2.04;71.86;101053.88;5113587;27;20053;-61
2023/03/12 00:43:26;;;;;;;5.78;4.28;;;;;;;2.05;72.15;101052.13;5109707;28;20023;-62
2023/03/12 00:45:51;;;;;;;6.53;4.57;;;;;;;2.04;71.90;101053.88;5112222;28;20063;-62
2023/03/12 00:48:17;;;;;;;10.50;4.15;;;;;;;2.07;72.08;101046.84;5114594;27;20063;-63
2023/03/12 00:50:42;;;;;;;11.52;4.53;;;;;;;2.07;71.83;101042.44;5103287;27;20123;-62
2023/03/12 00:53:07;;;;;;;6.47;3.80;;;;;;;2.07;71.79;101036.34;5112991;27;20023;-62
2023/03/12 00:55:32;;;;;;;6.47;3.85;;;;;;;2.10;71.18;101039.69;5113359;28;20545;-62
2023/03/12 00:57:58;;;;;;;10.15;4.40;;;;;;;2.10;71.16;101044.94;5113005;28;20023;-62
2023/03/12 01:00:23;;;;;;;10.45;4.40;;;;;;;2.12;71.47;101042.28;5112007;28;20019;-62
2023/03/12 01:02:49;;;;;;;7.38;4.03;;;;;;;2.12;71.49;101034.41;5113018;28;20053;-62
2023/03/12 01:05:14;;;;;;;7.18;4.10;;;;;;;2.13;70.36;101039.59;5112606;28;20466;-62
2023/03/12 01:07:40;;;;;;;12.15;4.13;;;;;;;2.13;70.19;101030.84;5112831;27;20032;-62
2023/03/12 01:10:07;;;;;;;10.35;4.55;;;;;;;2.13;70.21;101025.63;5112750;28;20518;-62
2023/03/12 01:12:32;;;;;;;11.13;4.28;;;;;;;2.14;69.90;101020.31;5112351;28;20028;-62
2023/03/12 01:14:58;;;;;;;8.82;4.20;;;;;;;2.15;70.35;101016.78;5102876;27;20086;-60
2023/03/12 01:17:23;;;;;;;8.00;4.10;;;;;;;2.16;70.16;101013.25;5112746;28;20023;-62
2023/03/12 01:19:48;;;;;;;9.80;3.75;;;;;;;2.17;69.91;101019.38;5114513;27;20047;-62
2023/03/12 01:22:14;;;;;;;8.15;4.40;;;;;;;2.17;70.40;101014.13;5112253;28;20034;-62
2023/03/12 01:24:39;;;;;;;9.15;4.40;;;;;;;2.18;70.57;101015.81;5106997;28;20123;-62
2023/03/12 01:27:04;;;;;;;9.88;4.50;;;;;;;2.19;70.44;101020.16;5110099;28;20036;-62
2023/03/12 01:29:30;;;;;;;7.82;4.50;;;;;;;2.19;70.62;101028.84;5111423;28;20024;-62
2023/03/12 01:31:55;;;;;;;5.57;4.05;;;;;;;2.19;70.29;101028.00;5113478;27;20069;-62
2023/03/12 01:34:20;;;;;;;11.35;4.93;;;;;;;2.21;70.92;101019.19;5112558;27;20537;-62
2023/03/12 01:36:46;;;;;;;5.78;4.20;;;;;;;2.20;70.63;101020.09;5112982;27;20023;-62
2023/03/12 01:39:12;;;;;;;9.20;4.93;;;;;;;2.21;71.02;101019.19;5111954;28;20045;-62
2023/03/12 01:41:38;;;;;;;10.13;4.60;;;;;;;2.22;71.00;101017.41;5112763;27;20043;-62
2023/03/12 01:44:04;;;;;;;9.10;5.28;;;;;;;2.22;71.30;100993.81;5112877;27;20047;-62
2023/03/12 01:46:38;;;;;;;7.72;4.50;;;;;;;2.22;71.15;100996.44;5112541;27;20121;-62
2023/03/12 01:49:29;;;;;;;10.30;4.70;;;;;;;2.24;71.79;100988.53;5102450;27;20027;-62
2023/03/12 01:52:00;;;;;;;10.63;5.13;;;;;;;2.24;71.51;100992.00;5112093;27;20374;-62
2023/03/12 01:54:40;;;;;;;8.77;4.25;;;;;;;2.25;71.67;100988.47;5112169;27;20023;-62
2023/03/12 01:57:10;;;;;;;10.05;5.05;;;;;;;2.25;71.68;100979.72;5112006;28;20361;-61
2023/03/12 01:59:47;;;;;;;7.25;4.22;;;;;;;2.26;70.95;100979.66;5110968;28;20036;-62
2023/03/12 02:02:14;;;;;;;9.63;4.45;;;;;;;2.22;71.81;100984.19;5105027;28;20032;-61
2023/03/12 02:04:42;;;;;;;9.57;4.63;;;;;;;2.23;71.40;100979.78;5107763;27;20024;-62
2023/03/12 02:07:10;;;;;;;11.57;4.53;;;;;;;2.21;71.48;100977.25;5111453;28;20044;-62
2023/03/12 02:09:40;;;;;;;6.72;4.45;;;;;;;2.20;71.98;100972.91;5112049;27;20070;-62
2023/03/12 02:12:06;;;;;;;11.85;5.00;;;;;;;2.21;72.02;100968.53;5105385;28;20024;-62
2023/03/12 02:14:32;;;;;;;7.80;4.95;;;;;;;2.20;71.57;100966.84;5107088;27;20020;-62
2023/03/12 02:16:57;;;;;;;10.63;4.72;;;;;;;2.19;72.24;100958.09;5113610;27;20110;-62
2023/03/12 02:19:53;;;;;;;8.00;4.63;;;;;;;2.20;72.58;100949.34;5113171;27;20062;-62
2023/03/12 02:22:19;;;;;;;8.43;4.88;;;;;;;2.19;72.21;100941.53;5113051;27;20038;-62
2023/03/12 02:25:02;;;;;;;8.88;5.07;;;;;;;2.19;72.70;100944.16;5113115;28;20054;-62
2023/03/12 02:27:32;;;;;;;11.30;5.15;;;;;;;2.18;72.39;100940.69;5085588;28;20023;-62
2023/03/12 02:29:59;;;;;;;9.05;5.28;;;;;;;2.17;73.11;100941.59;5112128;27;20542;-62
2023/03/12 02:32:28;;;;;;;11.73;4.75;;;;;;;2.17;72.83;100944.22;5113375;27;20023;-62
2023/03/12 02:34:55;;;;;;;8.38;5.32;;;;;;;2.18;73.40;100948.56;5101403;28;20351;-62
2023/03/12 02:37:21;;;;;;;12.00;5.53;;;;;;;2.17;73.39;100949.44;5110609;28;20024;-62
2023/03/12 02:39:54;;;;;;;9.75;5.20;;;;;;;2.15;73.44;100946.03;5112808;27;20041;-62
2023/03/12 02:42:22;;;;;;;11.63;5.30;;;;;;;2.15;73.36;100951.28;5112275;28;20436;-62
2023/03/12 02:44:48;;;;;;;8.38;4.90;;;;;;;2.15;73.43;100951.28;5099331;28;20031;-62
2023/03/12 02:47:13;;;;;;;10.40;5.18;;;;;;;2.15;74.43;100956.53;5106611;28;20095;-62
2023/03/12 02:49:39;;;;;;;11.23;5.07;;;;;;;2.16;74.61;100954.75;5112639;27;20034;-62
2023/03/12 02:52:04;;;;;;;10.32;5.35;;;;;;;2.14;74.75;100946.94;5111775;28;20385;-62
2023/03/12 02:54:29;;;;;;;8.77;5.20;;;;;;;2.13;75.55;100947.88;5100894;28;20525;-62
2023/03/12 02:56:55;;;;;;;10.32;5.57;;;;;;;2.14;76.36;100948.72;5111993;28;20031;-62
2023/03/12 02:59:24;;;;;;;13.50;5.40;;;;;;;2.13;77.25;100947.00;5112585;28;20386;-62
2023/03/12 03:01:56;;;;;;;12.30;5.57;;;;;;;2.12;78.31;100948.78;5112351;28;20373;-62
2023/03/12 03:04:23;;;;;;;9.65;5.07;;;;;;;2.12;78.52;100938.31;5112850;28;20031;-62
2023/03/12 03:06:48;;;;;;;11.13;5.55;;;;;;;2.10;79.89;100931.41;5111962;28;20054;-61
2023/03/12 03:09:14;;;;;;;7.45;5.45;;;;;;;2.08;80.40;100928.84;5113444;28;20065;-62
2023/03/12 03:11:39;;;;;;;10.43;5.22;;;;;;;2.07;81.47;100939.41;5111412;28;20396;-62
2023/03/12 03:14:05;;;;;;;10.85;5.40;;;;;;;2.05;82.03;100936.84;5107934;28;20366;-62
2023/03/12 03:16:31;;;;;;;7.88;5.03;;;;;;;2.05;81.34;100939.47;5114537;28;20462;-62
2023/03/12 03:18:57;;;;;;;10.50;5.30;;;;;;;2.01;82.54;100941.34;5112171;28;20110;-62
2023/03/12 03:21:22;;;;;;;11.50;5.65;;;;;;;1.99;82.32;100934.47;5112755;28;20490;-62
2023/03/12 03:23:50;;;;;;;9.75;5.43;;;;;;;1.98;83.44;100935.38;5101388;28;20141;-61
2023/03/12 03:26:18;;;;;;;10.40;4.97;;;;;;;1.92;83.79;100926.00;5112060;28;20070;-63
2023/03/12 03:28:44;;;;;;;9.55;5.10;;;;;;;1.93;84.00;100930.34;5110494;28;20031;-62
2023/03/12 03:31:09;;;;;;;9.77;4.88;;;;;;;1.91;84.54;100920.81;5111728;28;20026;-62
2023/03/12 03:33:37;;;;;;;12.55;5.00;;;;;;;1.89;85.42;100922.66;5111743;28;20148;-62
2023/03/12 03:36:04;;;;;;;9.35;4.75;;;;;;;1.89;85.51;100928.72;5111569;28;20607;-63
2023/03/12 03:38:31;;;;;;;9.35;4.80;;;;;;;1.89;85.57;100918.25;5111841;28;20393;-62
2023/03/12 03:40:56;;;;;;;9.68;4.40;;;;;;;1.90;85.77;100916.47;5106291;28;20023;-62
2023/03/12 03:43:22;;;;;;;9.35;5.28;;;;;;;1.89;86.32;100906.94;5111561;28;20016;-62
2023/03/12 03:45:54;;;;;;;8.32;4.70;;;;;;;1.88;86.53;100899.97;5111899;28;20080;-62
2023/03/12 03:48:20;;;;;;;7.72;4.68;;;;;;;1.88;86.63;100895.59;5102046;28;20023;-62
2023/03/12 03:50:45;;;;;;;10.60;4.95;;;;;;;1.87;86.85;100885.19;5112136;28;20049;-63
2023/03/12 03:53:11;;;;;;;12.07;4.82;;;;;;;1.87;86.65;100885.19;5112842;28;20107;-62
2023/03/12 03:55:38;;;;;;;9.68;4.82;;;;;;;1.88;87.58;100876.41;5108560;28;20157;-62
2023/03/12 03:58:04;;;;;;;9.45;4.65;;;;;;;1.89;87.11;100873.72;5106200;28;20031;-62
2023/03/12 04:00:29;;;;;;;8.52;5.22;;;;;;;1.89;87.24;100871.09;5112243;28;20115;-63
2023/03/12 04:02:54;;;;;;;10.55;5.70;;;;;;;1.89;87.22;100872.88;5115853;28;20019;-62
2023/03/12 04:05:20;;;;;;;12.45;5.53;;;;;;;1.89;86.65;100878.97;5115634;27;20032;-63
2023/03/12 04:07:45;;;;;;;10.55;5.22;;;;;;;1.89;87.01;100878.97;5114940;27;20023;-63
2023/03/12 04:10:11;;;;;;;11.48;5.40;;;;;;;1.90;86.87;100874.56;5115214;27;20050;-63
2023/03/12 04:12:36;;;;;;;10.95;5.00;;;;;;;1.90;87.20;100867.59;5114986;28;20030;-63
2023/03/12 04:15:02;;;;;;;9.20;5.35;;;;;;;1.91;87.73;100857.97;5116579;27;20107;-63
2023/03/12 04:17:27;;;;;;;10.50;5.63;;;;;;;1.90;87.42;100846.63;5114795;28;20027;-62
2023/03/12 04:19:52;;;;;;;6.13;4.85;;;;;;;1.91;86.99;100860.56;5105034;27;20024;-62
2023/03/12 04:22:17;;;;;;;10.75;5.78;;;;;;;1.89;87.36;100844.91;5111436;28;20115;-62
2023/03/12 04:24:43;;;;;;;11.68;5.68;;;;;;;1.90;87.41;100846.63;5111281;27;20111;-63
2023/03/12 04:27:08;;;;;;;10.70;4.97;;;;;;;1.91;87.36;100837.00;5114591;28;20031;-63
2023/03/12 04:29:33;;;;;;;8.70;4.82;;;;;;;1.91;87.46;100826.53;5114630;28;20016;-63
2023/03/12 04:31:59;;;;;;;9.65;5.03;;;;;;;1.92;87.63;100833.47;5114679;28;20023;-62
2023/03/12 04:34:24;;;;;;;11.85;5.20;;;;;;;1.92;87.55;100829.09;5114496;28;20514;-63
2023/03/12 04:36:49;;;;;;;11.07;5.10;;;;;;;1.91;87.90;100811.66;5113476;28;20026;-63
2023/03/12 04:39:18;;;;;;;8.43;4.93;;;;;;;1.91;88.13;100816.03;5113919;28;20030;-59
2023/03/12 04:41:44;;;;;;;10.63;5.70;;;;;;;1.91;88.02;100811.66;5114662;27;20051;-62
2023/03/12 04:44:09;;;;;;;9.73;5.20;;;;;;;1.91;88.30;100808.19;5114638;27;20025;-62
2023/03/12 04:46:34;;;;;;;10.10;5.43;;;;;;;1.92;88.04;100828.25;5110690;27;20468;-62
2023/03/12 04:49:01;;;;;;;11.15;5.35;;;;;;;1.92;88.10;100823.84;5096520;28;20552;-62
2023/03/12 04:51:28;;;;;;;12.90;5.07;;;;;;;1.93;88.54;100824.69;5115952;27;20034;-62
2023/03/12 04:53:53;;;;;;;11.35;5.40;;;;;;;1.93;88.61;100820.31;5115696;27;20035;-62
2023/03/12 04:56:18;;;;;;;11.75;4.97;;;;;;;1.95;88.58;100815.88;5114253;28;20080;-62
2023/03/12 04:58:43;;;;;;;9.90;4.85;;;;;;;1.95;89.36;100804.50;5112206;28;20026;-62
2023/03/12 05:01:21;;;;;;;11.25;5.40;;;;;;;1.96;89.12;100796.59;5116106;27;20043;-62
2023/03/12 05:03:47;;;;;;;10.55;5.53;;;;;;;1.97;89.62;100800.09;5115697;27;20028;-62
2023/03/12 05:06:12;;;;;;;12.77;5.20;;;;;;;1.98;89.63;100791.28;5115723;27;20115;-62
2023/03/12 05:08:37;;;;;;;10.30;4.75;;;;;;;1.97;89.96;100782.59;5108809;27;20497;-62
2023/03/12 05:11:03;;;;;;;11.95;4.97;;;;;;;1.97;89.99;100782.59;5113893;27;20078;-62
2023/03/12 05:13:28;;;;;;;10.48;5.03;;;;;;;1.96;91.08;100775.63;5114157;28;20362;-62
2023/03/12 05:15:53;;;;;;;7.90;4.85;;;;;;;1.96;91.92;100773.03;5108100;28;20071;-62
2023/03/12 05:18:20;;;;;;;14.90;6.28;;;;;;;1.95;93.27;100776.56;5104168;28;20111;-62
2023/03/12 05:20:45;;;;;;;9.07;4.82;;;;;;;1.93;94.00;100772.31;5115963;27;20031;-62
2023/03/12 05:23:11;;;;;;;10.20;5.07;;;;;;;1.94;95.92;100768.78;5114168;27;20057;-62
2023/03/12 05:25:40;;;;;;;9.32;5.35;;;;;;;1.91;97.13;100772.38;5113633;28;20032;-62
2023/03/12 05:28:05;;;;;;;8.27;5.30;;;;;;;1.91;96.83;100766.28;5113878;27;20051;-63
2023/03/12 05:30:30;;;;;;;9.40;5.15;;;;;;;1.90;97.28;100770.69;5113532;28;20060;-62
2023/03/12 05:32:55;;;;;;;14.52;4.85;;;;;;;1.90;98.34;100778.53;5115257;27;20436;-63
2023/03/12 05:35:21;;;;;;;8.98;5.40;;;;;;;1.90;98.80;100762.81;5114824;27;20030;-62
2023/03/12 05:37:46;;;;;;;12.32;5.28;;;;;;;1.89;99.15;100758.50;5112330;28;20023;-63
2023/03/12 05:40:12;;;;;;;12.57;5.20;;;;;;;1.90;99.47;100760.19;5113923;27;20031;-62
2023/03/12 05:42:38;;;;;;;10.70;5.07;;;;;;;1.89;99.92;100755.03;5113699;28;20050;-62
2023/03/12 05:45:04;;;;;;;9.40;4.93;;;;;;;1.89;100.00;100739.31;5114115;27;20046;-61
2023/03/12 05:47:29;;;;;;;12.35;5.60;;;;;;;1.91;100.00;100747.94;5114446;27;20032;-62
2023/03/12 05:49:55;;;;;;;11.80;5.28;;;;;;;1.93;100.00;100749.59;5113317;28;20363;-62
2023/03/12 05:52:20;;;;;;;12.65;5.43;;;;;;;1.93;100.00;100752.22;5094547;28;20077;-63
2023/03/12 05:54:45;;;;;;;10.20;5.90;;;;;;;1.93;100.00;100753.97;5113535;28;20445;-62
2023/03/12 05:57:11;;;;;;;10.95;5.60;;;;;;;1.96;100.00;100754.69;5108757;28;20060;-63
2023/03/12 05:59:36;;;;;;;9.55;5.18;;;;;;;1.95;100.00;100754.75;5111658;28;20020;-62
2023/03/12 06:02:01;;;;;;;12.68;6.20;;;;;;;1.98;100.00;100754.63;5109194;27;20028;-62
2023/03/12 06:04:27;;;;;;;14.25;6.20;;;;;;;1.99;100.00;100757.19;5107690;28;20035;-62
2023/03/12 06:06:52;;;;;;;10.63;5.80;;;;;;;1.99;100.00;100757.19;5112237;28;20478;-62
2023/03/12 06:09:17;;;;;;;9.57;5.75;;;;;;;2.01;100.00;100765.81;5112845;28;20031;-62
2023/03/12 06:11:43;;;;;;;12.70;6.05;;;;;;;2.04;100.00;100760.44;5108602;28;20032;-61
2023/03/12 06:14:08;;;;;;;13.75;5.93;;;;;;;2.07;100.00;100763.88;5113192;28;20039;-61
2023/03/12 06:16:33;;;;;;;10.48;5.88;;;;;;;2.08;100.00;100768.19;5110802;28;20027;-61
2023/03/12 06:19:01;;;;;;;12.52;5.32;;;;;;;2.09;100.00;100769.91;5111832;28;20096;-62
2023/03/12 06:21:30;;;;;;;10.13;5.97;;;;;;;2.10;100.00;100782.94;5105232;27;20150;-63
2023/03/12 06:23:55;;;;;;;10.20;6.10;;;;;;;2.12;100.00;100781.09;5105511;27;20024;-61
2023/03/12 06:26:22;;;;;;;12.63;5.63;;;;;;;2.13;100.00;100781.94;5112760;28;20716;-62
2023/03/12 06:28:49;;;;;;;11.93;6.05;;;;;;;2.14;100.00;100770.56;5109342;28;20032;-61
2023/03/12 06:31:14;;;;;;;14.82;6.05;;;;;;;2.15;100.00;100773.13;5102237;28;20035;-62
2023/03/12 06:33:40;;;;;;;10.25;6.03;;;;;;;2.15;100.00;100764.38;5109838;28;20023;-62
2023/03/12 06:36:07;;;;;;;14.10;6.38;;;;;;;2.17;100.00;100770.44;5090826;28;20024;-61
2023/03/12 06:38:33;;;;;;;10.90;6.65;;;;;;;2.17;100.00;100755.56;5112634;28;20031;-62
2023/03/12 06:41:11;;;;;;;11.02;6.20;;;;;;;2.17;100.00;100746.84;5113194;27;20115;-62
2023/03/12 06:43:37;;;;;;;9.82;5.85;;;;;;;2.18;100.00;100744.16;5108760;27;20035;-62
2023/03/12 06:46:04;;;;;;;10.77;6.38;;;;;;;2.21;100.00;100743.16;5109059;28;20462;-62
2023/03/12 06:48:35;;;;;;;16.83;6.65;;;;;;;2.19;100.00;100734.53;5111218;28;20052;-62
2023/03/12 06:51:02;;;;;;;12.23;7.47;;;;;;;2.18;100.00;100725.81;5107708;28;20053;-60
2023/03/12 06:53:27;;;;;;;12.93;6.53;;;;;;;2.20;100.00;100720.50;5113286;28;20541;-62
2023/03/12 06:55:53;;;;;;;11.55;7.25;;;;;;;2.20;100.00;100723.13;5093209;28;20110;-62
2023/03/12 06:58:18;;;;;;;13.55;7.03;;;;;;;2.22;100.00;100721.28;5107816;28;20028;-61
2023/03/12 07:00:44;;;;;;;13.90;7.05;;;;;;;2.22;100.00;100716.88;5112581;28;20075;-62
2023/03/12 07:03:09;;;;;;;9.10;6.90;;;;;;;2.22;100.00;100714.28;5110581;28;20024;-60
2023/03/12 07:05:34;;;;;;;16.58;7.47;;;;;;;2.25;100.00;100713.31;5113885;28;20149;-62
2023/03/12 07:08:00;;;;;;;13.65;7.28;;;;;;;2.26;100.00;100706.28;5113366;28;20027;-61
2023/03/12 07:10:28;;;;;;;11.20;7.53;;;;;;;2.27;100.00;100710.63;5112172;28;20028;-60
2023/03/12 07:12:53;;;;;;;16.45;8.00;;;;;;;2.27;100.00;100706.22;5113021;28;20462;-62
2023/03/12 07:15:19;;;;;;;11.68;7.90;;;;;;;2.28;100.00;100717.53;5109004;28;20143;-62
2023/03/12 07:17:44;;;;;;;15.35;7.72;;;;;;;2.28;100.00;100710.56;5099174;28;20039;-62
2023/03/12 07:20:10;;;;;;;15.30;7.20;;;;;;;2.31;100.00;100709.53;5107404;28;20108;-60
2023/03/12 07:22:36;;;;;;;10.73;7.93;;;;;;;2.35;100.00;100716.38;5087116;28;20100;-62
2023/03/12 07:25:01;;;;;;;12.57;8.18;;;;;;;2.38;100.00;100718.81;5111076;28;20047;-57
2023/03/12 07:27:26;;;;;;;13.00;8.05;;;;;;;2.42;100.00;100727.44;5104197;28;20706;-59
2023/03/12 07:29:52;;;;;;;16.77;8.70;;;;;;;2.43;100.00;100729.13;5114106;28;20039;-61
2023/03/12 07:32:17;;;;;;;13.63;8.63;;;;;;;2.45;100.00;100727.28;5108535;28;20043;-60
2023/03/12 07:34:42;;;;;;;18.17;9.35;;;;;;;2.47;100.00;100728.06;5117766;27;20034;-59
2023/03/12 07:37:08;;;;;;;13.82;8.15;;;;;;;2.50;100.00;100727.91;5111924;28;20070;-60
2023/03/12 07:39:33;;;;;;;13.05;8.75;;;;;;;2.51;100.00;100732.25;5114368;27;20038;-60
2023/03/12 07:41:58;;;;;;;16.42;9.35;;;;;;;2.54;100.00;100732.13;5107018;28;20055;-60
2023/03/12 07:44:25;;;;;;;13.98;9.20;;;;;;;2.55;100.00;100721.56;5106479;28;20032;-60
2023/03/12 07:46:51;;;;;;;14.18;9.43;;;;;;;2.59;100.00;100723.09;5109919;28;20032;-60
2023/03/12 07:49:16;;;;;;;14.10;9.02;;;;;;;2.61;100.00;100723.03;5116336;28;20035;-61
2023/03/12 07:51:41;;;;;;;13.95;9.70;;;;;;;2.64;100.00;100732.56;5110895;28;20042;-60
2023/03/12 07:54:06;;;;;;;15.32;9.88;;;;;;;2.67;100.00;100720.16;5114137;27;20023;-60
2023/03/12 07:56:32;;;;;;;14.55;9.88;;;;;;;2.69;100.00;100726.16;5113600;27;20024;-60
2023/03/12 07:58:57;;;;;;;15.38;9.45;;;;;;;2.73;100.00;100730.38;5115814;28;20100;-61
2023/03/12 08:01:24;;;;;;;12.98;9.48;;;;;;;2.76;100.00;100714.50;5114086;27;20440;-60
2023/03/12 08:03:49;;;;;;;16.00;9.98;;;;;;;2.81;100.00;100718.66;5115490;27;20027;-61
2023/03/12 08:06:14;;;;;;;17.58;10.30;;;;;;;2.85;100.00;100722.84;5108576;28;20114;-61
2023/03/12 08:08:41;;;;;;;16.88;10.68;;;;;;;2.90;100.00;100718.25;5118936;27;20039;-61
2023/03/12 08:11:08;;;;;;;12.38;10.05;;;;;;;2.94;100.00;100719.78;5114500;28;20039;-60
2023/03/12 08:13:34;;;;;;;15.25;9.90;;;;;;;2.98;100.00;100716.09;5105753;27;20035;-60
2023/03/12 08:15:59;;;;;;;14.90;9.85;;;;;;;3.04;100.00;100717.59;5114722;28;20047;-62
2023/03/12 08:18:25;;;;;;;14.95;9.63;;;;;;;3.08;100.00;100719.13;5114472;27;20046;-60
2023/03/12 08:20:52;;;;;;;13.57;9.98;;;;;;;3.12;100.00;100718.94;5114113;28;20032;-60
2023/03/12 08:23:18;;;;;;;14.50;10.30;;;;;;;3.18;100.00;100715.19;5113825;27;20030;-61
2023/03/12 08:25:46;;;;;;;11.65;9.70;;;;;;;3.25;100.00;100721.81;5113972;28;20149;-60
2023/03/12 08:28:11;;;;;;;13.98;9.73;;;;;;;3.33;100.00;100732.81;5112526;28;20024;-61
2023/03/12 08:30:37;;;;;;;11.20;9.52;;;;;;;3.39;100.00;100729.03;5117275;27;20504;-61
2023/03/12 08:33:02;;;;;;;15.13;9.77;;;;;;;3.44;100.00;100724.38;5111453;28;20522;-59
2023/03/12 08:35:27;;;;;;;16.20;10.75;;;;;;;3.51;100.00;100735.44;5111160;28;20440;-60
2023/03/12 08:37:53;;;;;;;13.20;10.07;;;;;;;3.58;100.00;100738.63;5105483;27;20061;-61
2023/03/12 08:40:18;;;;;;;14.07;9.43;;;;;;;3.63;100.00;100737.50;5113253;27;20501;-60
2023/03/12 08:42:44;;;;;;;14.77;10.95;;;;;;;3.70;100.00;100745.91;5109440;28;20051;-60
2023/03/12 08:45:10;;;;;;;12.13;9.95;;;;;;;3.76;100.00;100744.75;5111497;27;20046;-60
2023/03/12 08:47:40;;;;;;;14.43;11.20;;;;;;;3.82;100.00;100737.41;5114000;28;20131;-61
2023/03/12 08:50:06;;;;;;;13.70;11.47;;;;;;;3.88;100.00;100744.13;5112778;27;20082;-60
2023/03/12 08:52:32;;;;;;;15.40;11.82;;;;;;;3.96;100.00;100754.25;5105715;27;20024;-59
2023/03/12 08:54:57;;;;;;;15.50;12.15;;;;;;;4.00;100.00;100753.19;5103879;28;20469;-60
2023/03/12 08:57:22;;;;;;;21.60;14.32;;;;;;;4.08;100.00;100756.28;5105542;28;20038;-60
2023/03/12 08:59:47;;;;;;;19.52;13.95;;;;;;;4.15;100.00;100749.78;5107784;28;20466;-60
2023/03/12 09:02:13;;;;;;;24.77;16.23;;;;;;;4.24;100.00;100756.31;5112671;27;20597;-60
2023/03/12 09:04:38;;;;;;;25.13;15.90;;;;;;;4.32;100.00;100755.94;5087883;28;20470;-60
2023/03/12 09:07:04;;;;;;;29.60;18.52;;;;;;;4.42;100.00;100747.47;5121286;27;20059;-60
2023/03/12 09:09:29;;;;;;;26.90;18.70;;;;;;;4.51;100.00;100767.19;5111340;28;20519;-60
2023/03/12 09:11:55;;;;;;;27.23;18.40;;;;;;;4.60;100.00;100768.50;5116496;27;20049;-59
2023/03/12 09:14:20;;;;;;;28.00;19.45;;;;;;;4.69;100.00;100751.38;5105522;28;20032;-60
2023/03/12 09:16:45;;;;;;;30.05;20.52;;;;;;;4.76;100.00;100753.59;5114202;27;20096;-60
2023/03/12 09:19:11;;;;;;;27.38;19.58;;;;;;;4.84;100.00;100755.81;5112555;27;20027;-59
2023/03/12 09:21:36;;;;;;;27.13;20.42;;;;;;;4.93;100.00;100746.53;5113393;27;20135;-60
2023/03/12 09:24:01;;;;;;;29.70;22.05;;;;;;;5.03;100.00;100746.91;5093911;28;20035;-60
2023/03/12 09:26:27;;;;;;;30.85;22.70;;;;;;;5.11;100.00;100749.97;5098079;28;20036;-60
2023/03/12 09:28:52;;;;;;;30.55;22.65;;;;;;;5.19;100.00;100753.84;5107629;27;20028;-60
2023/03/12 09:31:17;;;;;;;30.20;22.35;;;;;;;5.28;100.00;100749.00;5111470;27;20444;-60
2023/03/12 09:33:43;;;;;;;31.63;24.98;;;;;;;5.37;100.00;100757.25;5105846;28;20112;-61
2023/03/12 09:36:08;;;;;;;29.20;23.45;;;;;;;5.47;100.00;100754.94;5108102;27;20036;-61
2023/03/12 09:38:34;;;;;;;31.70;25.35;;;;;;;5.56;100.00;100750.94;5114023;27;20051;-60
2023/03/12 09:41:02;;;;;;;32.33;25.58;;;;;;;5.65;100.00;100760.97;5113436;27;20065;-60
2023/03/12 09:43:41;;;;;;;32.95;25.00;;;;;;;5.72;100.00;100748.28;5110040;28;20039;-60
2023/03/12 09:46:13;;;;;;;32.67;26.33;;;;;;;5.84;100.00;100762.53;5109826;28;20036;-60
2023/03/12 09:48:39;;;;;;;28.33;25.17;;;;;;;5.94;100.00;100766.31;5113512;28;20098;-61
2023/03/12 09:51:19;;;;;;;31.02;26.15;;;;;;;6.02;100.00;100776.47;5113233;27;20118;-61
2023/03/12 09:53:48;;;;;;;31.67;24.75;;;;;;;6.09;100.00;100775.16;5090021;28;20031;-60
2023/03/12 09:56:17;;;;;;;32.47;25.80;;;;;;;6.15;100.00;100789.78;5109460;27;20051;-59
2023/03/12 09:58:46;;;;;;;29.77;24.90;;;;;;;6.22;100.00;100789.31;5113026;28;20051;-60
2023/03/12 10:01:37;;;;;;;32.65;24.75;;;;;;;6.28;100.00;100786.31;5110570;27;20044;-60
2023/03/12 10:04:16;;;;;;;28.77;24.80;;;;;;;6.35;100.00;100793.88;5110654;28;20039;-61
2023/03/12 10:06:51;;;;;;;32.67;25.48;;;;;;;6.41;100.00;100780.31;5109552;28;20126;-60
2023/03/12 10:09:28;;;;;;;29.92;24.67;;;;;;;6.47;100.00;100783.41;5112540;27;20489;-60
2023/03/12 10:12:05;;;;;;;33.85;24.42;;;;;;;6.56;100.00;100782.03;5111245;28;20051;-58
2023/03/12 10:14:54;;;;;;;31.20;24.30;;;;;;;6.62;100.00;100788.72;5104220;27;20036;-61
2023/03/12 10:17:49;;;;;;;30.73;25.08;;;;;;;6.69;100.00;100789.19;5104203;28;20119;-60
2023/03/12 10:20:51;;;;;;;37.08;25.17;;;;;;;6.74;100.00;100785.31;5110663;28;20111;-60
2023/03/12 10:23:30;;;;;;;34.50;25.90;;;;;;;6.80;100.00;100784.94;5111059;28;20023;-61
2023/03/12 10:26:08;;;;;;;31.95;24.95;;;;;;;6.85;100.00;100782.88;5102867;28;20470;-60
2023/03/12 10:29:10;;;;;;;36.30;24.20;;;;;;;6.90;100.00;100782.59;5102680;28;20039;-61
2023/03/12 10:32:12;;;;;;;37.00;24.67;;;;;;;6.95;100.00;100779.66;5080033;28;20300;-62
2023/03/12 10:35:01;;;;;;;38.88;25.60;;;;;;;7.00;100.00;100777.59;5107641;28;20428;-60
2023/03/12 10:37:47;;;;;;;46.63;26.27;;;;;;;7.06;100.00;100782.50;5105787;28;20044;-61
2023/03/12 10:40:19;;;;;;;38.92;26.40;;;;;;;7.12;100.00;100778.59;5109725;28;20028;-61
2023/03/12 10:42:44;;;;;;;39.20;24.92;;;;;;;7.18;100.00;100783.50;5111757;28;20051;-61
2023/03/12 10:45:09;;;;;;;42.08;26.58;;;;;;;7.26;100.00;100781.22;5112540;28;20046;-61
2023/03/12 10:47:43;;;;;;;41.97;25.67;;;;;;;7.33;100.00;100771.13;5112270;27;20075;-61
2023/03/12 10:50:21;;;;;;;41.20;25.83;;;;;;;7.41;100.00;100774.06;5107510;27;20295;-61
2023/03/12 10:52:49;;;;;;;46.92;25.20;;;;;;;7.47;100.00;100778.97;5111591;28;20440;-61
2023/03/12 10:55:29;;;;;;;46.40;25.30;;;;;;;7.54;100.00;100775.00;5096118;28;20056;-61
2023/03/12 10:57:55;;;;;;;47.95;25.42;;;;;;;7.62;100.00;100774.50;5108059;28;20084;-61
2023/03/12 11:00:28;;;;;;;39.53;23.52;;;;;;;7.73;100.00;100773.81;5111121;28;20057;-61
2023/03/12 11:03:02;;;;;;;48.75;24.58;;;;;;;7.82;100.00;100778.47;5112063;28;20059;-61
2023/03/12 11:05:44;;;;;;;50.90;24.05;;;;;;;7.94;100.00;100779.44;5106434;28;20027;-61
2023/03/12 11:08:22;;;;;;;44.15;22.15;;;;;;;8.00;100.00;100771.13;5109240;28;20040;-61
2023/03/12 11:10:47;;;;;;;45.30;21.63;;;;;;;8.08;100.00;100778.56;5113193;28;20034;-61
2023/03/12 11:13:23;;;;;;;40.92;20.02;;;;;;;8.13;100.00;100781.72;5110728;28;20024;-61
2023/03/12 11:15:50;;;;;;;43.70;19.48;;;;;;;8.20;100.00;100780.34;5102180;28;20040;-61
2023/03/12 11:18:28;;;;;;;36.00;19.27;;;;;;;8.27;100.00;100786.91;5111305;28;20024;-61
2023/03/12 11:20:56;;;;;;;45.03;18.33;;;;;;;8.31;100.00;100783.13;5112015;28;20032;-61
2023/03/12 11:23:28;;;;;;;45.95;17.88;;;;;;;8.37;100.00;100791.59;5109524;28;20476;-61
2023/03/12 11:26:22;;;;;;;38.97;16.58;;;;;;;8.40;100.00;100789.59;5105302;28;20072;-60